Time;durP1;ratioP1;P1;durP2;ratioP2;P2;SDS_P1;SDS_P2;PMS_P1;PMS_P2;Temp;Humidity;BMP_temperature;BMP_pressure;BME280_temperature;BME280_humidity;BME280_pressure;Samples;Min_cycle;Max_cycle;Signal;HPM_P1;HPM_P2
2021/08/29 00:01:00;;;;;;;29.37;16.77;;;;;;;20.09;80.54;100657.77;1834369;78;21083;-60
2021/08/29 00:03:29;;;;;;;29.85;16.12;;;;;;;20.04;80.50;100656.28;1834354;78;21047;-60
2021/08/29 00:05:58;;;;;;;29.52;17.07;;;;;;;20.03;80.45;100659.95;1834420;78;21091;-60
2021/08/29 00:08:27;;;;;;;38.63;18.35;;;;;;;20.01;80.41;100653.87;1833331;78;21099;-60
2021/08/29 00:10:57;;;;;;;34.25;16.50;;;;;;;19.98;80.46;100648.77;1830719;78;21138;-61
2021/08/29 00:13:26;;;;;;;35.83;17.48;;;;;;;19.96;80.59;100646.71;1830861;78;21663;-60
2021/08/29 00:15:54;;;;;;;30.52;17.42;;;;;;;19.91;80.68;100640.87;1830888;78;21084;-60
2021/08/29 00:18:23;;;;;;;32.50;16.80;;;;;;;19.91;80.69;100643.55;1830816;78;21071;-60
2021/08/29 00:20:52;;;;;;;34.55;16.73;;;;;;;19.91;80.63;100640.04;1830840;78;21079;-60
2021/08/29 00:23:20;;;;;;;34.73;16.75;;;;;;;19.90;80.58;100638.33;1830711;78;21219;-60
2021/08/29 00:25:49;;;;;;;33.67;16.02;;;;;;;19.86;80.55;100636.38;1830960;78;21072;-60
2021/08/29 00:28:17;;;;;;;27.30;15.70;;;;;;;19.83;80.54;100640.66;1830821;78;21077;-60
2021/08/29 00:30:46;;;;;;;28.90;16.82;;;;;;;19.77;80.62;100633.11;1830825;78;21111;-60
2021/08/29 00:33:15;;;;;;;28.77;16.37;;;;;;;19.71;80.81;100630.90;1830840;78;21228;-61
2021/08/29 00:35:44;;;;;;;32.73;17.10;;;;;;;19.63;80.98;100629.69;1830760;78;21054;-61
2021/08/29 00:38:13;;;;;;;43.48;25.17;;;;;;;19.60;81.10;100625.91;1830822;78;21092;-61
2021/08/29 00:40:42;;;;;;;59.75;27.77;;;;;;;19.59;81.17;100628.73;1830884;78;21075;-60
2021/08/29 00:43:10;;;;;;;41.37;25.25;;;;;;;19.59;81.31;100630.06;1830809;78;21190;-60
2021/08/29 00:45:39;;;;;;;35.65;21.07;;;;;;;19.58;81.44;100630.52;1831076;78;21075;-60
2021/08/29 00:48:09;;;;;;;34.45;19.32;;;;;;;19.59;81.68;100632.23;1830783;78;21087;-61
2021/08/29 00:50:40;;;;;;;31.40;18.57;;;;;;;19.62;81.51;100633.34;1831001;78;21055;-60
2021/08/29 00:53:09;;;;;;;35.25;19.50;;;;;;;19.63;81.32;100628.34;1837410;78;21122;-60
2021/08/29 00:55:40;;;;;;;38.73;21.45;;;;;;;19.62;81.15;100625.33;1845856;77;21114;-60
2021/08/29 00:58:09;;;;;;;40.45;22.62;;;;;;;19.63;81.02;100626.17;1850772;77;21530;-60
2021/08/29 01:00:41;;;;;;;36.45;20.65;;;;;;;19.58;81.14;100626.52;1850645;77;21098;-61
2021/08/29 01:03:16;;;;;;;34.03;18.48;;;;;;;19.54;81.22;100623.73;1850918;77;21031;-60
2021/08/29 01:05:54;;;;;;;28.42;17.17;;;;;;;19.51;81.35;100619.95;1819133;77;21071;-60
2021/08/29 01:08:29;;;;;;;29.07;17.30;;;;;;;19.48;81.38;100620.22;1849309;77;21086;-60
2021/08/29 01:11:06;;;;;;;33.23;19.62;;;;;;;19.45;81.31;100613.77;1850919;77;21152;-60
2021/08/29 01:13:37;;;;;;;36.55;19.90;;;;;;;19.43;81.38;100617.89;1850158;77;21141;-60
2021/08/29 01:16:12;;;;;;;32.17;18.65;;;;;;;19.42;81.39;100614.00;1850691;77;21505;-60
2021/08/29 01:18:44;;;;;;;36.35;18.17;;;;;;;19.40;81.59;100609.27;1848755;77;21078;-60
2021/08/29 01:21:22;;;;;;;36.23;18.02;;;;;;;19.39;81.60;100612.93;1850787;77;21114;-59
2021/08/29 01:24:03;;;;;;;37.28;19.30;;;;;;;19.37;81.54;100614.88;1850705;77;21177;-60
2021/08/29 01:26:50;;;;;;;38.55;19.60;;;;;;;19.37;81.40;100612.20;1850898;77;21591;-60
2021/08/29 01:29:22;;;;;;;36.13;19.82;;;;;;;19.36;81.37;100622.50;1850301;77;21486;-60
2021/08/29 01:31:51;;;;;;;29.92;17.45;;;;;;;19.33;81.55;100616.93;1850782;77;21485;-60
2021/08/29 01:34:21;;;;;;;25.62;15.45;;;;;;;19.29;81.57;100608.30;1850856;77;21490;-60
2021/08/29 01:36:54;;;;;;;35.88;18.00;;;;;;;19.25;81.57;100606.83;1846596;77;21537;-59
2021/08/29 01:39:24;;;;;;;26.10;16.73;;;;;;;19.17;81.76;100595.91;1850770;77;21172;-60
2021/08/29 01:41:55;;;;;;;32.13;16.97;;;;;;;19.15;81.82;100598.34;1850726;77;21105;-59
2021/08/29 01:44:26;;;;;;;32.25;19.32;;;;;;;19.11;81.82;100596.39;1850795;77;21577;-60
2021/08/29 01:46:56;;;;;;;38.58;19.00;;;;;;;19.07;82.09;100606.45;1850876;77;21047;-60
2021/08/29 01:49:28;;;;;;;28.67;17.82;;;;;;;19.04;82.33;100605.83;1850942;77;21051;-59
2021/08/29 01:51:58;;;;;;;40.75;23.05;;;;;;;19.00;82.42;100605.22;1850751;77;21144;-60
2021/08/29 01:54:28;;;;;;;43.98;23.73;;;;;;;18.96;82.80;100605.09;1853388;76;21156;-60
2021/08/29 01:57:04;;;;;;;38.45;19.95;;;;;;;18.86;82.97;100608.92;1874404;76;21568;-60
2021/08/29 01:59:35;;;;;;;32.00;18.37;;;;;;;18.85;82.87;100616.58;1875487;76;21506;-60
2021/08/29 02:02:05;;;;;;;29.85;19.52;;;;;;;18.81;83.08;100612.45;1875824;76;21083;-60
2021/08/29 02:04:35;;;;;;;34.27;19.15;;;;;;;18.76;83.42;100615.91;1875813;76;21086;-60
2021/08/29 02:07:19;;;;;;;38.08;19.27;;;;;;;18.74;83.44;100612.51;1875989;76;21509;-60
2021/08/29 02:09:54;;;;;;;37.48;19.92;;;;;;;18.74;83.39;100619.17;1875735;76;21094;-61
2021/08/29 02:12:25;;;;;;;36.60;18.45;;;;;;;18.70;83.38;100617.22;1875900;76;21421;-60
2021/08/29 02:15:09;;;;;;;50.67;23.18;;;;;;;18.69;83.49;100618.17;1875791;76;21589;-60
2021/08/29 02:17:40;;;;;;;36.93;20.68;;;;;;;18.70;83.33;100616.34;1875736;76;21047;-60
2021/08/29 02:20:12;;;;;;;33.08;19.70;;;;;;;18.67;83.38;100615.27;1875592;76;21114;-60
2021/08/29 02:22:41;;;;;;;45.00;20.88;;;;;;;18.65;83.46;100615.87;1875796;76;21047;-60
2021/08/29 02:25:11;;;;;;;39.85;20.32;;;;;;;18.63;83.53;100613.80;1875907;76;21463;-60
2021/08/29 02:27:42;;;;;;;29.52;17.70;;;;;;;18.62;83.53;100608.09;1875786;76;21047;-60
2021/08/29 02:30:12;;;;;;;35.80;17.82;;;;;;;18.62;83.53;100610.75;1875695;76;21064;-61
2021/08/29 02:32:43;;;;;;;35.10;17.77;;;;;;;18.61;83.52;100613.03;1875735;76;21023;-62
2021/08/29 02:35:12;;;;;;;35.43;18.02;;;;;;;18.60;83.47;100610.86;1875694;76;21592;-61
2021/08/29 02:37:43;;;;;;;28.23;18.45;;;;;;;18.61;83.42;100611.25;1875043;76;21047;-61
2021/08/29 02:40:14;;;;;;;34.53;19.52;;;;;;;18.64;83.25;100612.81;1875620;76;21109;-60
2021/08/29 02:42:45;;;;;;;36.08;22.67;;;;;;;18.64;83.34;100604.81;1875709;76;21482;-61
2021/08/29 02:45:15;;;;;;;41.10;22.58;;;;;;;18.64;83.40;100604.81;1875696;76;21036;-61
2021/08/29 02:47:45;;;;;;;38.83;20.10;;;;;;;18.60;83.50;100608.69;1875740;76;21124;-61
2021/08/29 02:50:15;;;;;;;44.42;19.90;;;;;;;18.59;83.40;100611.84;1875697;76;21063;-60
2021/08/29 02:52:45;;;;;;;35.38;19.73;;;;;;;18.58;83.17;100609.28;1875659;76;21617;-61
2021/08/29 02:55:19;;;;;;;39.55;18.62;;;;;;;18.58;83.10;100614.62;1875724;76;21098;-61
2021/08/29 02:57:51;;;;;;;38.35;17.82;;;;;;;18.58;83.16;100611.95;1875613;76;21087;-61
2021/08/29 03:00:38;;;;;;;36.70;18.82;;;;;;;18.59;83.14;100610.52;1875703;76;21071;-62
2021/08/29 03:03:08;;;;;;;34.18;17.42;;;;;;;18.60;83.06;100606.02;1875745;76;21148;-63
2021/08/29 03:05:37;;;;;;;40.50;18.50;;;;;;;18.59;83.10;100611.84;1875614;76;21103;-63
2021/08/29 03:08:07;;;;;;;32.73;17.95;;;;;;;18.56;83.17;100611.22;1875696;76;21113;-63
2021/08/29 03:10:36;;;;;;;41.20;18.23;;;;;;;18.56;83.26;100612.55;1875761;76;21039;-61
2021/08/29 03:13:06;;;;;;;33.53;16.73;;;;;;;18.60;83.36;100612.69;1875687;76;21598;-64
2021/08/29 03:15:39;;;;;;;33.78;17.60;;;;;;;18.67;83.32;100615.27;1875136;76;21066;-63
2021/08/29 03:18:10;;;;;;;33.75;17.07;;;;;;;18.75;83.25;100611.52;1876202;76;21501;-64
2021/08/29 03:20:42;;;;;;;31.35;16.95;;;;;;;18.83;83.22;100615.84;1875689;76;21107;-64
2021/08/29 03:23:11;;;;;;;29.30;14.63;;;;;;;18.92;83.16;100617.44;1875706;76;21556;-64
2021/08/29 03:25:40;;;;;;;23.85;14.28;;;;;;;19.01;83.08;100619.40;1875831;76;21068;-64
2021/08/29 03:28:09;;;;;;;24.75;14.10;;;;;;;19.11;82.94;100628.41;1875711;76;21113;-64
2021/08/29 03:30:40;;;;;;;24.60;14.40;;;;;;;19.18;82.76;100637.66;1875689;76;21071;-64
2021/08/29 03:33:08;;;;;;;26.48;14.53;;;;;;;19.25;82.46;100638.85;1875505;76;21086;-64
2021/08/29 03:35:39;;;;;;;27.67;13.35;;;;;;;19.32;82.21;100639.73;1875664;76;21082;-64
2021/08/29 03:38:08;;;;;;;24.77;12.78;;;;;;;19.38;81.84;100643.25;1875756;76;21491;-64
2021/08/29 03:40:40;;;;;;;28.25;14.00;;;;;;;19.44;81.63;100633.42;1875621;76;21048;-64
2021/08/29 03:43:10;;;;;;;28.50;14.07;;;;;;;19.55;81.37;100640.13;1875654;76;21039;-61
2021/08/29 03:45:40;;;;;;;24.07;14.30;;;;;;;19.58;80.73;100634.53;1875606;76;21043;-62
2021/08/29 03:48:11;;;;;;;25.60;13.78;;;;;;;19.67;80.53;100636.48;1875697;76;21518;-61
2021/08/29 03:50:41;;;;;;;23.45;13.98;;;;;;;19.89;80.15;100640.66;1875534;76;21040;-65
2021/08/29 03:53:10;;;;;;;20.70;13.03;;;;;;;20.03;79.61;100633.22;1875320;76;21063;-66
2021/08/29 03:55:44;;;;;;;23.87;12.50;;;;;;;20.24;79.37;100639.14;1874873;76;21518;-65
2021/08/29 03:58:13;;;;;;;23.62;13.60;;;;;;;20.52;79.20;100627.52;1875724;76;21017;-64
2021/08/29 04:00:44;;;;;;;22.62;13.65;;;;;;;20.79;78.76;100630.59;1875034;76;21492;-62
2021/08/29 04:03:13;;;;;;;22.32;13.22;;;;;;;21.03;78.33;100633.52;1875972;76;21038;-61
2021/08/29 04:05:44;;;;;;;24.07;13.05;;;;;;;21.25;77.65;100637.02;1857495;76;21519;-61
2021/08/29 04:08:17;;;;;;;24.95;12.78;;;;;;;21.53;77.00;100631.52;1875898;76;21044;-65
2021/08/29 04:10:48;;;;;;;24.77;13.60;;;;;;;21.83;76.31;100630.66;1871725;76;21092;-65
2021/08/29 04:13:18;;;;;;;19.00;12.75;;;;;;;22.05;75.99;100624.23;1837929;78;21032;-63
2021/08/29 04:16:05;;;;;;;25.10;13.20;;;;;;;22.36;75.60;100624.19;1846635;76;21066;-63
2021/08/29 04:18:42;;;;;;;20.68;12.90;;;;;;;22.65;74.59;100622.88;1852345;76;21051;-63
2021/08/29 04:21:13;;;;;;;23.87;14.00;;;;;;;22.91;73.73;100626.33;1875723;76;21150;-62
2021/08/29 04:23:43;;;;;;;24.02;13.32;;;;;;;23.15;72.90;100623.22;1875846;76;21141;-62
2021/08/29 04:26:13;;;;;;;29.48;12.63;;;;;;;23.33;72.11;100625.98;1875707;76;21542;-62
2021/08/29 04:28:43;;;;;;;24.65;12.13;;;;;;;23.48;71.32;100625.88;1875692;76;21071;-62
2021/08/29 04:31:15;;;;;;;22.35;13.28;;;;;;;23.70;70.91;100631.89;1875790;76;21113;-62
2021/08/29 04:33:45;;;;;;;;;;;;;;;23.82;69.75;100625.34;1876756;76;21122;-61
2021/08/29 04:36:33;;;;;;;25.12;13.50;;;;;;;23.99;69.37;100626.89;1875749;76;20409;-62
2021/08/29 04:39:07;;;;;;;37.35;13.93;;;;;;;23.95;68.16;100624.16;1875769;76;21076;-62
2021/08/29 04:41:38;;;;;;;24.47;13.45;;;;;;;24.03;67.86;100614.83;1874820;76;21056;-62
2021/08/29 04:44:10;;;;;;;23.12;12.35;;;;;;;24.25;67.45;100619.80;1875235;76;21563;-68
2021/08/29 04:46:40;;;;;;;21.48;13.15;;;;;;;24.54;67.26;100605.81;1860281;76;21082;-67
2021/08/29 04:49:10;;;;;;;26.55;13.65;;;;;;;24.88;66.67;100600.56;1842789;78;21661;-65
2021/08/29 04:51:39;;;;;;;24.15;14.20;;;;;;;25.13;66.50;100608.81;1858055;76;21031;-63
2021/08/29 04:54:08;;;;;;;27.00;13.58;;;;;;;25.48;65.76;100607.88;1875867;76;22251;-65
2021/08/29 04:56:37;;;;;;;24.07;15.00;;;;;;;25.69;64.76;100604.76;1875317;76;21234;-67
2021/08/29 04:59:07;;;;;;;27.45;13.95;;;;;;;25.95;64.31;100603.88;1875895;76;21069;-66
2021/08/29 05:01:37;;;;;;;20.62;13.20;;;;;;;26.23;63.51;100599.57;1853840;76;21167;-67
2021/08/29 05:04:06;;;;;;;23.98;14.10;;;;;;;26.47;62.36;100602.33;1875714;76;21075;-65
2021/08/29 05:06:34;;;;;;;21.75;13.10;;;;;;;26.71;61.90;100599.34;1875657;76;21111;-62
2021/08/29 05:09:05;;;;;;;24.27;13.00;;;;;;;27.04;61.45;100592.06;1875187;76;21211;-64
2021/08/29 05:11:34;;;;;;;28.90;13.30;;;;;;;27.29;60.80;100593.39;1875916;76;21434;-64
2021/08/29 05:14:03;;;;;;;23.90;12.55;;;;;;;27.49;60.41;100590.62;1875747;76;21039;-71
2021/08/29 05:16:32;;;;;;;21.75;13.20;;;;;;;27.75;59.94;100589.51;1875615;76;21067;-62
2021/08/29 05:19:01;;;;;;;20.60;13.25;;;;;;;28.01;59.26;100579.76;1875841;76;21063;-63
2021/08/29 05:21:30;;;;;;;27.17;12.37;;;;;;;28.34;58.59;100589.03;1853584;76;21502;-63
2021/08/29 05:24:12;;;;;;;31.17;13.38;;;;;;;28.65;57.74;100575.45;1873996;76;21062;-63
2021/08/29 05:26:42;;;;;;;27.40;13.10;;;;;;;29.01;57.21;100578.87;1873436;76;21051;-63
2021/08/29 05:29:12;;;;;;;28.10;13.85;;;;;;;29.24;56.31;100576.09;1875828;76;21494;-63
2021/08/29 05:31:42;;;;;;;23.40;13.32;;;;;;;29.45;55.84;100573.16;1875749;76;21149;-64
2021/08/29 05:34:11;;;;;;;28.57;13.90;;;;;;;29.64;55.13;100561.73;1875778;76;21585;-63
2021/08/29 05:36:40;;;;;;;23.80;13.95;;;;;;;29.71;54.47;100567.22;1875848;76;21043;-63
2021/08/29 05:39:10;;;;;;;25.97;13.68;;;;;;;29.80;54.03;100566.64;1875746;76;21521;-63
2021/08/29 05:41:38;;;;;;;29.10;14.03;;;;;;;29.96;53.48;100569.13;1875745;76;21072;-63
2021/08/29 05:44:25;;;;;;;35.95;15.08;;;;;;;30.20;53.11;100563.02;1875582;76;21058;-63
2021/08/29 05:46:54;;;;;;;28.92;13.40;;;;;;;30.51;52.35;100558.66;1853495;76;21055;-62
2021/08/29 05:49:24;;;;;;;26.00;13.32;;;;;;;30.60;51.86;100560.20;1875492;76;21047;-61
2021/08/29 05:51:53;;;;;;;28.95;13.13;;;;;;;30.70;51.72;100558.49;1875757;76;21530;-62
2021/08/29 05:54:22;;;;;;;29.27;15.18;;;;;;;30.96;51.77;100557.05;1875771;76;21125;-62
2021/08/29 05:56:55;;;;;;;32.28;17.30;;;;;;;31.12;51.41;100556.74;1875606;76;21568;-63
2021/08/29 05:59:25;;;;;;;34.60;17.90;;;;;;;31.29;51.18;100560.51;1853106;76;21550;-63
2021/08/29 06:01:53;;;;;;;29.27;15.88;;;;;;;31.37;50.34;100558.97;1875809;76;21577;-63
2021/08/29 06:04:24;;;;;;;29.65;15.48;;;;;;;31.54;49.94;100557.64;1875593;76;21071;-63
2021/08/29 06:07:06;;;;;;;31.57;16.15;;;;;;;31.71;49.87;100558.66;1853007;76;21067;-64
2021/08/29 06:09:35;;;;;;;22.67;14.78;;;;;;;31.88;49.90;100560.48;1875568;76;21125;-63
2021/08/29 06:12:04;;;;;;;23.90;13.45;;;;;;;31.98;49.16;100557.36;1875733;76;21071;-63
2021/08/29 06:14:34;;;;;;;23.70;12.55;;;;;;;31.98;48.53;100558.20;1875716;76;21171;-63
2021/08/29 06:17:03;;;;;;;25.97;13.48;;;;;;;32.06;48.65;100558.59;1875858;76;21043;-63
2021/08/29 06:19:33;;;;;;;20.30;12.90;;;;;;;32.11;48.57;100550.61;1875797;76;21109;-63
2021/08/29 06:22:02;;;;;;;24.52;12.68;;;;;;;32.15;48.26;100548.31;1875609;76;21252;-63
2021/08/29 06:24:32;;;;;;;22.05;12.35;;;;;;;32.23;47.83;100549.50;1875788;76;21109;-63
2021/08/29 06:27:18;;;;;;;16.67;10.40;;;;;;;32.20;47.72;100557.55;1875005;76;21127;-69
2021/08/29 06:29:49;;;;;;;19.37;10.43;;;;;;;32.19;47.59;100550.44;1838585;76;21100;-67
2021/08/29 06:32:22;;;;;;;16.02;10.32;;;;;;;32.15;47.35;100553.27;1859990;76;21070;-67
2021/08/29 06:34:53;;;;;;;18.45;11.85;;;;;;;32.12;47.21;100549.05;1867465;76;21082;-66
2021/08/29 06:37:26;;;;;;;22.98;11.40;;;;;;;32.03;47.23;100545.37;1847576;76;21067;-65
2021/08/29 06:39:56;;;;;;;19.73;11.90;;;;;;;32.11;47.78;100543.30;1842690;78;21048;-66
2021/08/29 06:42:24;;;;;;;21.80;11.38;;;;;;;32.33;48.10;100547.19;1868737;76;21121;-64
2021/08/29 06:44:55;;;;;;;26.93;12.03;;;;;;;32.50;47.61;100542.20;1872484;76;21066;-67
2021/08/29 06:47:42;;;;;;;18.73;11.63;;;;;;;32.92;47.69;100539.25;1845549;76;21490;-66
2021/08/29 06:50:29;;;;;;;18.50;10.50;;;;;;;33.18;46.80;100532.93;1842683;78;21196;-66
2021/08/29 06:53:16;;;;;;;22.70;11.65;;;;;;;33.40;46.00;100528.89;1844231;78;21110;-68
2021/08/29 06:55:57;;;;;;;;;;;;;;;33.51;45.53;100527.36;1846749;78;21602;-67
2021/08/29 06:58:44;;;;;;;16.70;10.55;;;;;;;33.87;46.04;100527.87;1841829;77;20121;-64
2021/08/29 07:01:13;;;;;;;20.02;11.12;;;;;;;34.12;45.33;100526.53;1849656;77;21075;-67
2021/08/29 07:03:42;;;;;;;21.00;12.30;;;;;;;34.25;44.32;100525.64;1870620;77;21067;-65
2021/08/29 07:06:11;;;;;;;15.93;11.12;;;;;;;34.26;44.44;100523.23;1861575;77;21036;-64
2021/08/29 07:08:47;;;;;;;19.23;11.03;;;;;;;34.30;44.12;100483.46;1833112;77;21149;-64
2021/08/29 07:11:15;;;;;;;22.67;10.98;;;;;;;34.45;44.18;100508.55;1847676;77;21036;-66
2021/08/29 07:14:02;;;;;;;25.70;11.18;;;;;;;34.59;43.32;100507.38;1870638;77;21072;-63
2021/08/29 07:16:31;;;;;;;21.57;12.30;;;;;;;34.86;43.42;100511.78;1870992;77;21079;-64
2021/08/29 07:19:00;;;;;;;20.60;12.20;;;;;;;35.05;42.81;100504.45;1870954;77;21027;-64
2021/08/29 07:21:46;;;;;;;23.85;12.10;;;;;;;35.36;41.79;100504.30;1870849;77;21067;-64
2021/08/29 07:24:33;;;;;;;17.37;10.85;;;;;;;35.61;41.67;100495.13;1870804;77;21063;-64
2021/08/29 07:27:20;;;;;;;16.35;10.75;;;;;;;35.73;41.13;100505.64;1870903;77;21063;-64
2021/08/29 07:30:02;;;;;;;19.98;11.63;;;;;;;35.97;40.78;100506.23;1866659;77;21091;-64
2021/08/29 07:32:44;;;;;;;;;;;;;;;35.93;40.31;100491.66;1872776;77;21107;-64
2021/08/29 07:35:13;;;;;;;21.23;11.15;;;;;;;36.16;40.51;100493.32;1870972;77;20148;-64
2021/08/29 07:38:03;;;;;;;18.30;11.25;;;;;;;36.07;40.43;100490.91;1866332;77;21094;-64
2021/08/29 07:40:33;;;;;;;14.70;9.45;;;;;;;36.17;40.01;100482.13;1870955;77;21075;-64
2021/08/29 07:43:01;;;;;;;19.12;10.08;;;;;;;36.25;39.92;100483.72;1870841;77;21438;-64
2021/08/29 07:45:30;;;;;;;19.15;10.13;;;;;;;36.16;39.47;100485.92;1870888;77;21149;-64
2021/08/29 07:47:59;;;;;;;16.15;10.00;;;;;;;36.18;39.30;100485.70;1870913;77;21126;-64
2021/08/29 07:50:28;;;;;;;20.35;10.90;;;;;;;36.20;39.12;100487.69;1870912;76;21137;-64
2021/08/29 07:52:57;;;;;;;14.60;10.15;;;;;;;36.26;39.16;100481.26;1870906;77;21040;-64
2021/08/29 07:55:31;;;;;;;14.47;8.80;;;;;;;36.59;38.54;100477.11;1866489;77;21051;-64
2021/08/29 07:58:04;;;;;;;20.30;10.60;;;;;;;36.53;38.55;100472.88;1853962;77;21597;-65
2021/08/29 08:00:34;;;;;;;15.78;9.73;;;;;;;36.43;38.55;100478.13;1875361;76;21095;-64
2021/08/29 08:03:05;;;;;;;19.07;10.50;;;;;;;36.67;38.48;100475.42;1816483;76;21132;-64
2021/08/29 08:05:47;;;;;;;19.48;11.38;;;;;;;36.89;38.43;100470.98;1816204;76;21128;-64
2021/08/29 08:08:23;;;;;;;17.90;10.70;;;;;;;37.20;38.97;100470.27;1871689;76;21051;-65
2021/08/29 08:11:02;;;;;;;18.05;11.15;;;;;;;37.38;37.77;100467.06;1787674;80;21092;-64
2021/08/29 08:13:33;;;;;;;17.55;10.15;;;;;;;37.48;37.66;100463.16;1875750;76;21145;-64
2021/08/29 08:16:02;;;;;;;19.75;11.63;;;;;;;37.68;37.82;100459.14;1875864;76;21490;-64
2021/08/29 08:18:31;;;;;;;20.40;9.88;;;;;;;38.05;37.56;100460.88;1875772;76;21149;-65
2021/08/29 08:21:01;;;;;;;16.10;10.38;;;;;;;38.08;36.70;100458.20;1875834;76;21146;-65
2021/08/29 08:23:50;;;;;;;16.50;9.38;;;;;;;38.22;36.57;100463.69;1875615;76;21083;-64
2021/08/29 08:26:27;;;;;;;18.92;9.70;;;;;;;38.34;36.51;100460.84;1875705;76;21035;-64
2021/08/29 08:29:06;;;;;;;17.30;10.45;;;;;;;38.33;35.94;100454.52;1782403;80;21182;-65
2021/08/29 08:31:48;;;;;;;17.30;9.28;;;;;;;38.17;35.22;100449.31;1836076;76;21043;-64
2021/08/29 08:34:34;;;;;;;17.40;10.23;;;;;;;38.18;35.47;100446.86;1782847;80;21560;-64
2021/08/29 08:37:07;;;;;;;16.82;10.13;;;;;;;38.12;34.90;100440.15;1823801;76;21067;-64
2021/08/29 08:39:50;;;;;;;17.27;10.03;;;;;;;38.08;34.96;100443.08;1873991;76;21098;-64
2021/08/29 08:42:20;;;;;;;17.40;9.55;;;;;;;37.92;35.12;100441.43;1869969;76;21181;-64
2021/08/29 08:44:54;;;;;;;18.70;10.20;;;;;;;38.07;35.53;100440.02;1875627;76;21066;-64
2021/08/29 08:47:44;;;;;;;17.50;9.68;;;;;;;37.93;35.14;100436.23;1875847;76;21051;-64
2021/08/29 08:50:15;;;;;;;15.93;10.53;;;;;;;38.01;35.12;100430.86;1838872;76;21133;-64
2021/08/29 08:53:05;;;;;;;17.25;9.93;;;;;;;38.23;34.84;100425.48;1875724;76;21067;-64
2021/08/29 08:55:36;;;;;;;16.30;9.20;;;;;;;38.37;34.88;100424.59;1816759;76;21070;-64
2021/08/29 08:58:25;;;;;;;17.05;9.45;;;;;;;38.37;34.77;100419.92;1875602;76;21091;-64
2021/08/29 09:01:01;;;;;;;80.97;40.23;;;;;;;38.62;34.74;100414.52;1866150;76;21099;-62
2021/08/29 09:03:35;;;;;;;11.63;7.83;;;;;;;39.05;34.30;100417.04;1863055;77;21082;-62
2021/08/29 09:06:07;;;;;;;9.65;7.47;;;;;;;38.87;33.72;100420.09;1863019;77;21460;-62
2021/08/29 09:08:38;;;;;;;11.33;6.60;;;;;;;38.68;33.97;100408.02;1865111;77;21502;-63
2021/08/29 09:11:07;;;;;;;1999.90;999.90;;;;;;;38.47;34.12;100410.16;1860933;77;21628;-64
2021/08/29 09:13:52;;;;;;;12.55;8.58;;;;;;;38.17;34.65;100409.45;1850772;77;21054;-67
2021/08/29 09:16:25;;;;;;;15.80;8.38;;;;;;;38.50;34.72;100409.66;1855488;77;21063;-67
2021/08/29 09:19:03;;;;;;;19.20;10.15;;;;;;;38.61;34.79;100404.62;1865085;77;21517;-63
2021/08/29 09:21:37;;;;;;;14.95;8.70;;;;;;;38.41;34.50;100405.12;1849806;77;21200;-63
2021/08/29 09:24:12;;;;;;;14.18;8.40;;;;;;;38.22;34.91;100401.84;1846551;77;21129;-66
2021/08/29 09:27:01;;;;;;;16.62;9.40;;;;;;;38.28;35.00;100398.06;1849730;77;21138;-65
2021/08/29 09:29:39;;;;;;;14.50;9.10;;;;;;;38.33;35.22;100399.52;1847557;77;21107;-65
2021/08/29 09:32:09;;;;;;;16.55;9.58;;;;;;;38.75;34.99;100393.53;1850181;77;21063;-65
2021/08/29 09:34:45;;;;;;;16.93;10.23;;;;;;;38.73;34.50;100394.86;1848949;77;21148;-66
2021/08/29 09:37:17;;;;;;;22.93;10.00;;;;;;;38.60;34.41;100386.44;1846038;77;21153;-66
2021/08/29 09:40:21;;;;;;;14.87;9.37;;;;;;;38.68;35.20;100383.78;1792038;80;21105;-64
2021/08/29 09:43:08;;;;;;;12.82;7.87;;;;;;;38.81;35.48;100393.88;1764494;81;21109;-64
2021/08/29 09:45:40;;;;;;;;;;;;;;;38.59;34.48;100386.16;1801366;77;21589;-66
2021/08/29 09:48:27;;;;;;;15.40;7.20;;;;;;;38.42;33.76;100380.13;1848972;77;20136;-66
2021/08/29 09:51:04;;;;;;;19.42;8.68;;;;;;;38.23;33.90;100380.11;1846658;77;21184;-66
2021/08/29 09:53:46;;;;;;;12.33;7.42;;;;;;;38.04;33.91;100374.03;1831601;77;21086;-62
2021/08/29 09:56:29;;;;;;;16.25;7.25;;;;;;;38.03;34.06;100380.08;1848040;77;21030;-63
2021/08/29 09:59:05;;;;;;;14.95;8.80;;;;;;;37.93;33.80;100370.29;1833637;77;21058;-65
2021/08/29 10:01:43;;;;;;;18.82;7.25;;;;;;;37.89;34.28;100370.51;1860388;76;21069;-65
2021/08/29 10:04:19;;;;;;;12.40;6.53;;;;;;;37.90;34.60;100365.28;1879113;76;21128;-65
2021/08/29 10:06:50;;;;;;;15.43;7.95;;;;;;;37.96;34.28;100364.30;1881914;76;21148;-65
2021/08/29 10:09:26;;;;;;;17.27;8.13;;;;;;;37.86;34.10;100363.58;1882075;76;21484;-65
2021/08/29 10:12:04;;;;;;;13.25;7.00;;;;;;;37.93;34.19;100363.42;1880303;76;21097;-65
2021/08/29 10:14:35;;;;;;;13.20;7.90;;;;;;;37.84;34.08;100363.55;1882168;76;21543;-65
2021/08/29 10:17:16;;;;;;;13.50;7.53;;;;;;;37.66;34.46;100359.98;1855490;77;21520;-65
2021/08/29 10:20:03;;;;;;;16.52;6.90;;;;;;;37.80;34.63;100363.77;1882194;76;21073;-65
2021/08/29 10:22:49;;;;;;;13.62;6.60;;;;;;;37.92;34.36;100357.62;1858112;76;21069;-65
2021/08/29 10:25:19;;;;;;;18.27;8.83;;;;;;;37.73;33.74;100356.23;1882258;76;21048;-65
2021/08/29 10:27:51;;;;;;;12.95;7.28;;;;;;;37.61;33.99;100353.51;1882158;76;21052;-66
2021/08/29 10:30:26;;;;;;;13.90;7.33;;;;;;;37.77;33.93;100356.02;1877147;76;21064;-65
2021/08/29 10:33:05;;;;;;;10.15;6.47;;;;;;;37.76;34.21;100359.86;1870733;76;21593;-64
2021/08/29 10:35:39;;;;;;;10.08;6.10;;;;;;;37.59;34.02;100356.53;1872275;76;21085;-64
2021/08/29 10:38:10;;;;;;;15.65;7.10;;;;;;;37.34;34.40;100347.30;1877355;76;21543;-66
2021/08/29 10:40:57;;;;;;;13.55;6.60;;;;;;;37.29;34.48;100341.16;1882190;76;21101;-65
2021/08/29 10:43:28;;;;;;;11.93;7.22;;;;;;;37.31;34.27;100340.09;1879186;76;21632;-65
2021/08/29 10:46:16;;;;;;;14.40;7.28;;;;;;;37.19;34.30;100346.47;1875381;76;21579;-65
2021/08/29 10:49:04;;;;;;;15.08;6.97;;;;;;;37.11;34.35;100339.96;1875367;76;21106;-65
2021/08/29 10:51:38;;;;;;;13.78;7.03;;;;;;;37.09;34.38;100344.34;1874499;76;21144;-65
2021/08/29 10:54:15;;;;;;;12.03;7.15;;;;;;;36.93;34.46;100345.13;1875557;76;21039;-65
2021/08/29 10:56:46;;;;;;;10.55;7.05;;;;;;;36.91;35.19;100333.56;1875154;76;21594;-64
2021/08/29 10:59:19;;;;;;;8.85;5.58;;;;;;;37.04;35.13;100337.93;1875270;76;21558;-65
2021/08/29 11:01:55;;;;;;;12.87;6.83;;;;;;;36.94;34.85;100339.09;1875509;76;21550;-65
2021/08/29 11:04:41;;;;;;;12.82;7.15;;;;;;;36.73;34.48;100336.49;1875342;76;21860;-64
2021/08/29 11:07:11;;;;;;;14.25;6.55;;;;;;;36.47;34.32;100335.92;1863844;76;21117;-64
2021/08/29 11:09:46;;;;;;;13.88;7.22;;;;;;;36.28;34.59;100332.47;1875243;76;21162;-65
2021/08/29 11:12:19;;;;;;;14.70;7.28;;;;;;;36.10;34.83;100327.41;1875656;76;21036;-64
2021/08/29 11:14:54;;;;;;;16.85;6.85;;;;;;;36.06;35.12;100331.70;1874129;76;21087;-64
2021/08/29 11:17:27;;;;;;;14.25;6.45;;;;;;;35.88;35.31;100331.27;1875506;76;21059;-65
2021/08/29 11:20:06;;;;;;;9.60;6.58;;;;;;;35.75;35.95;100317.81;1874114;76;21552;-65
2021/08/29 11:22:52;;;;;;;12.63;6.15;;;;;;;35.48;35.27;100317.38;1875616;76;21066;-65
2021/08/29 11:25:38;;;;;;;12.07;6.55;;;;;;;35.23;35.81;100319.77;1837187;78;21153;-64
2021/08/29 11:28:13;;;;;;;9.25;5.75;;;;;;;35.04;35.51;100318.92;1855733;76;21556;-64
2021/08/29 11:30:55;;;;;;;19.60;6.65;;;;;;;34.73;34.92;100300.83;1872312;76;21169;-65
2021/08/29 11:33:27;;;;;;;15.00;5.85;;;;;;;34.66;35.76;100310.98;1873725;76;21063;-65
2021/08/29 11:35:58;;;;;;;19.37;8.38;;;;;;;34.54;35.78;100306.29;1872268;76;21068;-65
2021/08/29 11:38:46;;;;;;;14.65;7.08;;;;;;;34.46;35.76;100302.52;1873098;76;21092;-66
2021/08/29 11:41:17;;;;;;;9.83;5.72;;;;;;;34.41;36.28;100305.09;1875615;76;21051;-64